Worthville, Pennsylvania
Current Conditions -  °F | °C
As of 7:53 PM on Friday 21 Nov 2014 (Local Time) from KDUJ Reporting Station
Clear Clear  
Wind Chill: 17°   Ceiling: Unl
Heat Index: 17°   Visibility: 10mi
Dew Point:   Wind: 0mph
Humidity: 68%   Direction: NA
Pressure: 30.4"   Gusts: NA
Location:  41.02°N, 79.14°W
Report Text: KDUJ 220053Z AUTO 00000KT 10SM CLR M08/M13 A3040 RMK AO2 SLP326 T10831133
Loading
Personal Weather Stations






























Interactive Weather Map New forecast layout! Learn more

10-Day Weather Forecast

Advertisements
Track Severe Weather on mobile